sensor_id;sensor_type;location;lat;lon;timestamp;P1;durP1;ratioP1;P2;durP2;ratioP2
36747;SDS011;22716;51.556;5.080;2023-05-10T00:01:57;28.37;;;18.73;;
36747;SDS011;22716;51.556;5.080;2023-05-10T00:04:26;23.80;;;16.70;;
36747;SDS011;22716;51.556;5.080;2023-05-10T00:06:58;30.73;;;20.53;;
36747;SDS011;22716;51.556;5.080;2023-05-10T00:09:27;27.83;;;18.23;;
36747;SDS011;22716;51.556;5.080;2023-05-10T00:11:56;36.93;;;20.60;;
36747;SDS011;22716;51.556;5.080;2023-05-10T00:14:26;33.00;;;20.53;;
36747;SDS011;22716;51.556;5.080;2023-05-10T00:16:55;27.27;;;20.30;;
36747;SDS011;22716;51.556;5.080;2023-05-10T00:19:24;34.40;;;22.00;;
36747;SDS011;22716;51.556;5.080;2023-05-10T00:21:53;34.50;;;21.77;;
36747;SDS011;22716;51.556;5.080;2023-05-10T00:24:25;30.67;;;20.10;;
36747;SDS011;22716;51.556;5.080;2023-05-10T00:26:54;38.30;;;23.30;;
36747;SDS011;22716;51.556;5.080;2023-05-10T00:29:23;32.87;;;22.60;;
36747;SDS011;22716;51.556;5.080;2023-05-10T00:31:53;38.17;;;24.33;;
36747;SDS011;22716;51.556;5.080;2023-05-10T00:34:23;38.97;;;22.80;;
36747;SDS011;22716;51.556;5.080;2023-05-10T00:36:52;34.63;;;22.40;;
36747;SDS011;22716;51.556;5.080;2023-05-10T00:39:22;32.70;;;23.53;;
36747;SDS011;22716;51.556;5.080;2023-05-10T00:41:54;40.20;;;22.67;;
36747;SDS011;22716;51.556;5.080;2023-05-10T00:44:25;42.37;;;26.03;;
36747;SDS011;22716;51.556;5.080;2023-05-10T00:46:56;36.17;;;24.27;;
36747;SDS011;22716;51.556;5.080;2023-05-10T00:49:26;40.10;;;25.33;;
36747;SDS011;22716;51.556;5.080;2023-05-10T00:51:55;46.10;;;25.80;;
36747;SDS011;22716;51.556;5.080;2023-05-10T00:54:27;38.90;;;24.40;;
36747;SDS011;22716;51.556;5.080;2023-05-10T00:56:56;40.50;;;26.60;;
36747;SDS011;22716;51.556;5.080;2023-05-10T00:59:26;38.07;;;24.17;;
36747;SDS011;22716;51.556;5.080;2023-05-10T01:01:55;53.20;;;29.43;;
36747;SDS011;22716;51.556;5.080;2023-05-10T01:04:23;49.70;;;28.57;;
36747;SDS011;22716;51.556;5.080;2023-05-10T01:06:53;48.60;;;28.50;;
36747;SDS011;22716;51.556;5.080;2023-05-10T01:09:23;54.60;;;32.20;;
36747;SDS011;22716;51.556;5.080;2023-05-10T01:11:56;61.27;;;31.83;;
36747;SDS011;22716;51.556;5.080;2023-05-10T01:14:26;62.80;;;31.53;;
36747;SDS011;22716;51.556;5.080;2023-05-10T01:16:55;60.70;;;31.70;;
36747;SDS011;22716;51.556;5.080;2023-05-10T01:19:25;61.50;;;33.27;;
36747;SDS011;22716;51.556;5.080;2023-05-10T01:22:02;62.10;;;35.73;;
36747;SDS011;22716;51.556;5.080;2023-05-10T01:27:40;56.20;;;29.80;;
36747;SDS011;22716;51.556;5.080;2023-05-10T01:33:44;56.93;;;33.03;;
36747;SDS011;22716;51.556;5.080;2023-05-10T01:36:23;55.37;;;32.23;;
36747;SDS011;22716;51.556;5.080;2023-05-10T01:38:57;62.13;;;32.97;;
36747;SDS011;22716;51.556;5.080;2023-05-10T01:41:34;61.50;;;33.73;;
36747;SDS011;22716;51.556;5.080;2023-05-10T01:44:11;54.57;;;32.50;;
36747;SDS011;22716;51.556;5.080;2023-05-10T01:46:48;53.27;;;30.27;;
36747;SDS011;22716;51.556;5.080;2023-05-10T01:49:25;57.43;;;32.60;;
36747;SDS011;22716;51.556;5.080;2023-05-10T01:52:00;58.90;;;33.67;;
36747;SDS011;22716;51.556;5.080;2023-05-10T01:54:36;59.73;;;33.67;;
36747;SDS011;22716;51.556;5.080;2023-05-10T01:57:09;55.13;;;31.10;;
36747;SDS011;22716;51.556;5.080;2023-05-10T01:59:42;56.03;;;31.10;;
36747;SDS011;22716;51.556;5.080;2023-05-10T02:02:13;55.80;;;33.63;;
36747;SDS011;22716;51.556;5.080;2023-05-10T02:04:47;57.50;;;31.47;;
36747;SDS011;22716;51.556;5.080;2023-05-10T02:07:17;65.53;;;36.50;;
36747;SDS011;22716;51.556;5.080;2023-05-10T02:09:47;68.70;;;37.43;;
36747;SDS011;22716;51.556;5.080;2023-05-10T02:12:16;64.80;;;36.57;;
36747;SDS011;22716;51.556;5.080;2023-05-10T02:14:46;71.93;;;41.87;;
36747;SDS011;22716;51.556;5.080;2023-05-10T02:17:16;68.40;;;42.07;;
36747;SDS011;22716;51.556;5.080;2023-05-10T02:19:49;64.07;;;39.63;;
36747;SDS011;22716;51.556;5.080;2023-05-10T02:22:20;72.38;;;42.53;;
36747;SDS011;22716;51.556;5.080;2023-05-10T02:24:50;68.23;;;40.50;;
36747;SDS011;22716;51.556;5.080;2023-05-10T02:27:19;82.13;;;43.73;;
36747;SDS011;22716;51.556;5.080;2023-05-10T02:29:51;73.87;;;42.27;;
36747;SDS011;22716;51.556;5.080;2023-05-10T02:32:20;78.67;;;42.93;;
36747;SDS011;22716;51.556;5.080;2023-05-10T02:34:53;76.33;;;45.43;;
36747;SDS011;22716;51.556;5.080;2023-05-10T02:37:23;75.83;;;41.93;;
36747;SDS011;22716;51.556;5.080;2023-05-10T02:39:55;69.37;;;42.93;;
36747;SDS011;22716;51.556;5.080;2023-05-10T02:42:26;68.43;;;42.77;;
36747;SDS011;22716;51.556;5.080;2023-05-10T02:44:59;67.70;;;38.27;;
36747;SDS011;22716;51.556;5.080;2023-05-10T02:47:29;68.20;;;41.33;;
36747;SDS011;22716;51.556;5.080;2023-05-10T02:50:01;68.87;;;38.70;;
36747;SDS011;22716;51.556;5.080;2023-05-10T02:52:34;69.03;;;40.43;;
36747;SDS011;22716;51.556;5.080;2023-05-10T02:55:08;62.13;;;37.33;;
36747;SDS011;22716;51.556;5.080;2023-05-10T02:57:43;57.87;;;33.77;;
36747;SDS011;22716;51.556;5.080;2023-05-10T03:00:17;56.73;;;33.93;;
36747;SDS011;22716;51.556;5.080;2023-05-10T03:02:46;55.70;;;32.10;;
36747;SDS011;22716;51.556;5.080;2023-05-10T03:05:18;49.30;;;31.93;;
36747;SDS011;22716;51.556;5.080;2023-05-10T03:07:47;60.10;;;33.63;;
36747;SDS011;22716;51.556;5.080;2023-05-10T03:10:16;56.33;;;32.47;;
36747;SDS011;22716;51.556;5.080;2023-05-10T03:12:52;44.53;;;28.10;;
36747;SDS011;22716;51.556;5.080;2023-05-10T03:15:31;51.90;;;27.60;;
36747;SDS011;22716;51.556;5.080;2023-05-10T03:18:13;46.10;;;26.63;;
36747;SDS011;22716;51.556;5.080;2023-05-10T03:20:49;44.73;;;26.17;;
36747;SDS011;22716;51.556;5.080;2023-05-10T03:23:26;46.47;;;24.23;;
36747;SDS011;22716;51.556;5.080;2023-05-10T03:25:58;42.07;;;25.77;;
36747;SDS011;22716;51.556;5.080;2023-05-10T03:28:29;47.20;;;24.90;;
36747;SDS011;22716;51.556;5.080;2023-05-10T03:31:00;46.10;;;24.90;;
36747;SDS011;22716;51.556;5.080;2023-05-10T03:33:30;44.10;;;26.20;;
36747;SDS011;22716;51.556;5.080;2023-05-10T03:36:04;45.87;;;24.50;;
36747;SDS011;22716;51.556;5.080;2023-05-10T03:38:34;45.97;;;25.52;;
36747;SDS011;22716;51.556;5.080;2023-05-10T03:41:03;48.93;;;24.83;;
36747;SDS011;22716;51.556;5.080;2023-05-10T03:43:32;46.53;;;25.73;;
36747;SDS011;22716;51.556;5.080;2023-05-10T03:46:02;50.13;;;22.50;;
36747;SDS011;22716;51.556;5.080;2023-05-10T03:48:31;37.67;;;22.80;;
36747;SDS011;22716;51.556;5.080;2023-05-10T03:51:04;37.00;;;22.83;;
36747;SDS011;22716;51.556;5.080;2023-05-10T03:53:33;42.33;;;22.80;;
36747;SDS011;22716;51.556;5.080;2023-05-10T03:56:03;36.53;;;22.03;;
36747;SDS011;22716;51.556;5.080;2023-05-10T03:58:33;29.07;;;19.87;;
36747;SDS011;22716;51.556;5.080;2023-05-10T04:01:02;37.77;;;22.63;;
36747;SDS011;22716;51.556;5.080;2023-05-10T04:03:31;31.13;;;21.50;;
36747;SDS011;22716;51.556;5.080;2023-05-10T04:06:04;47.47;;;24.27;;
36747;SDS011;22716;51.556;5.080;2023-05-10T04:08:37;31.50;;;19.80;;
36747;SDS011;22716;51.556;5.080;2023-05-10T04:11:05;39.93;;;21.37;;
36747;SDS011;22716;51.556;5.080;2023-05-10T04:13:35;37.20;;;21.17;;
36747;SDS011;22716;51.556;5.080;2023-05-10T04:16:05;39.57;;;20.43;;
36747;SDS011;22716;51.556;5.080;2023-05-10T04:18:34;33.57;;;20.73;;
36747;SDS011;22716;51.556;5.080;2023-05-10T04:21:10;36.83;;;21.07;;
36747;SDS011;22716;51.556;5.080;2023-05-10T04:23:40;37.00;;;21.50;;
36747;SDS011;22716;51.556;5.080;2023-05-10T04:26:09;37.73;;;20.93;;
36747;SDS011;22716;51.556;5.080;2023-05-10T04:28:39;34.27;;;21.33;;
36747;SDS011;22716;51.556;5.080;2023-05-10T04:31:08;32.13;;;21.43;;
36747;SDS011;22716;51.556;5.080;2023-05-10T04:33:38;29.83;;;19.27;;
36747;SDS011;22716;51.556;5.080;2023-05-10T04:36:09;33.20;;;20.97;;
36747;SDS011;22716;51.556;5.080;2023-05-10T04:38:38;31.63;;;20.47;;
36747;SDS011;22716;51.556;5.080;2023-05-10T04:41:08;37.27;;;19.67;;
36747;SDS011;22716;51.556;5.080;2023-05-10T04:43:38;37.20;;;20.83;;
36747;SDS011;22716;51.556;5.080;2023-05-10T04:46:07;32.23;;;19.67;;
36747;SDS011;22716;51.556;5.080;2023-05-10T04:48:37;36.97;;;21.70;;
36747;SDS011;22716;51.556;5.080;2023-05-10T04:51:06;33.50;;;20.60;;
36747;SDS011;22716;51.556;5.080;2023-05-10T04:53:38;31.80;;;20.87;;
36747;SDS011;22716;51.556;5.080;2023-05-10T04:56:06;30.47;;;18.03;;
36747;SDS011;22716;51.556;5.080;2023-05-10T04:58:36;30.83;;;19.33;;
36747;SDS011;22716;51.556;5.080;2023-05-10T05:01:05;30.70;;;19.77;;
36747;SDS011;22716;51.556;5.080;2023-05-10T05:03:35;32.33;;;20.30;;
36747;SDS011;22716;51.556;5.080;2023-05-10T05:06:05;32.33;;;20.03;;
36747;SDS011;22716;51.556;5.080;2023-05-10T05:08:38;29.40;;;18.43;;
36747;SDS011;22716;51.556;5.080;2023-05-10T05:11:07;36.00;;;22.03;;
36747;SDS011;22716;51.556;5.080;2023-05-10T05:13:36;30.40;;;19.80;;
36747;SDS011;22716;51.556;5.080;2023-05-10T05:16:05;29.47;;;18.60;;
36747;SDS011;22716;51.556;5.080;2023-05-10T05:18:35;40.67;;;20.10;;
36747;SDS011;22716;51.556;5.080;2023-05-10T05:21:13;30.67;;;19.43;;
36747;SDS011;22716;51.556;5.080;2023-05-10T05:23:44;31.27;;;19.07;;
36747;SDS011;22716;51.556;5.080;2023-05-10T05:26:14;29.67;;;18.00;;
36747;SDS011;22716;51.556;5.080;2023-05-10T05:28:43;35.67;;;19.47;;
36747;SDS011;22716;51.556;5.080;2023-05-10T05:31:14;28.90;;;19.97;;
36747;SDS011;22716;51.556;5.080;2023-05-10T05:33:43;30.20;;;18.23;;
36747;SDS011;22716;51.556;5.080;2023-05-10T05:36:13;30.87;;;19.10;;
36747;SDS011;22716;51.556;5.080;2023-05-10T05:38:42;31.03;;;20.73;;
36747;SDS011;22716;51.556;5.080;2023-05-10T05:41:14;31.77;;;19.37;;
36747;SDS011;22716;51.556;5.080;2023-05-10T05:43:43;36.33;;;21.17;;
36747;SDS011;22716;51.556;5.080;2023-05-10T05:46:12;33.50;;;20.70;;
36747;SDS011;22716;51.556;5.080;2023-05-10T05:48:41;36.47;;;21.73;;
36747;SDS011;22716;51.556;5.080;2023-05-10T05:51:10;37.93;;;22.40;;
36747;SDS011;22716;51.556;5.080;2023-05-10T05:53:39;38.63;;;22.83;;
36747;SDS011;22716;51.556;5.080;2023-05-10T05:56:10;41.67;;;23.87;;
36747;SDS011;22716;51.556;5.080;2023-05-10T05:58:39;39.80;;;24.47;;
36747;SDS011;22716;51.556;5.080;2023-05-10T06:01:08;39.23;;;23.53;;
36747;SDS011;22716;51.556;5.080;2023-05-10T06:03:37;44.53;;;25.87;;
36747;SDS011;22716;51.556;5.080;2023-05-10T06:06:06;37.80;;;24.77;;
36747;SDS011;22716;51.556;5.080;2023-05-10T06:08:36;41.10;;;23.50;;
36747;SDS011;22716;51.556;5.080;2023-05-10T06:11:05;40.30;;;24.03;;
36747;SDS011;22716;51.556;5.080;2023-05-10T06:13:39;37.57;;;24.57;;
36747;SDS011;22716;51.556;5.080;2023-05-10T06:16:12;35.00;;;23.30;;
36747;SDS011;22716;51.556;5.080;2023-05-10T06:18:42;35.60;;;21.47;;
36747;SDS011;22716;51.556;5.080;2023-05-10T06:21:11;34.83;;;20.30;;
36747;SDS011;22716;51.556;5.080;2023-05-10T06:23:40;34.33;;;21.27;;
36747;SDS011;22716;51.556;5.080;2023-05-10T06:26:12;34.23;;;17.57;;
36747;SDS011;22716;51.556;5.080;2023-05-10T06:28:41;27.17;;;17.27;;
36747;SDS011;22716;51.556;5.080;2023-05-10T06:31:11;25.73;;;15.53;;
36747;SDS011;22716;51.556;5.080;2023-05-10T06:33:40;22.30;;;14.63;;
36747;SDS011;22716;51.556;5.080;2023-05-10T06:36:10;24.50;;;14.90;;
36747;SDS011;22716;51.556;5.080;2023-05-10T06:38:39;23.67;;;13.33;;
36747;SDS011;22716;51.556;5.080;2023-05-10T06:41:08;24.10;;;14.80;;
36747;SDS011;22716;51.556;5.080;2023-05-10T06:43:39;22.33;;;13.47;;
36747;SDS011;22716;51.556;5.080;2023-05-10T06:46:09;23.67;;;12.40;;
36747;SDS011;22716;51.556;5.080;2023-05-10T06:48:38;26.87;;;13.67;;
36747;SDS011;22716;51.556;5.080;2023-05-10T06:51:07;21.77;;;12.13;;
36747;SDS011;22716;51.556;5.080;2023-05-10T06:53:36;22.80;;;11.57;;
36747;SDS011;22716;51.556;5.080;2023-05-10T06:56:06;20.40;;;12.20;;
36747;SDS011;22716;51.556;5.080;2023-05-10T06:58:36;19.00;;;12.10;;
36747;SDS011;22716;51.556;5.080;2023-05-10T07:01:08;17.33;;;12.20;;
36747;SDS011;22716;51.556;5.080;2023-05-10T07:03:36;16.80;;;10.90;;
36747;SDS011;22716;51.556;5.080;2023-05-10T07:06:06;15.93;;;9.30;;
36747;SDS011;22716;51.556;5.080;2023-05-10T07:08:35;15.90;;;10.23;;
36747;SDS011;22716;51.556;5.080;2023-05-10T07:11:04;14.27;;;9.80;;
36747;SDS011;22716;51.556;5.080;2023-05-10T07:13:35;14.17;;;9.57;;
36747;SDS011;22716;51.556;5.080;2023-05-10T07:16:20;14.70;;;8.67;;
36747;SDS011;22716;51.556;5.080;2023-05-10T07:18:49;20.33;;;9.03;;
36747;SDS011;22716;51.556;5.080;2023-05-10T07:21:18;13.60;;;9.43;;
36747;SDS011;22716;51.556;5.080;2023-05-10T07:23:49;15.73;;;9.93;;
36747;SDS011;22716;51.556;5.080;2023-05-10T07:26:18;13.87;;;8.53;;
36747;SDS011;22716;51.556;5.080;2023-05-10T07:28:47;11.33;;;7.60;;
36747;SDS011;22716;51.556;5.080;2023-05-10T07:31:16;15.63;;;8.20;;
36747;SDS011;22716;51.556;5.080;2023-05-10T07:33:48;10.30;;;6.30;;
36747;SDS011;22716;51.556;5.080;2023-05-10T07:36:18;12.80;;;5.60;;
36747;SDS011;22716;51.556;5.080;2023-05-10T07:38:48;12.20;;;7.13;;
36747;SDS011;22716;51.556;5.080;2023-05-10T07:41:16;6.23;;;5.63;;
36747;SDS011;22716;51.556;5.080;2023-05-10T07:43:46;8.67;;;5.77;;
36747;SDS011;22716;51.556;5.080;2023-05-10T07:46:15;7.57;;;5.00;;
36747;SDS011;22716;51.556;5.080;2023-05-10T07:48:47;11.07;;;5.73;;
36747;SDS011;22716;51.556;5.080;2023-05-10T07:51:16;11.20;;;6.97;;
36747;SDS011;22716;51.556;5.080;2023-05-10T07:53:48;13.18;;;5.07;;
36747;SDS011;22716;51.556;5.080;2023-05-10T07:56:21;8.70;;;4.50;;
36747;SDS011;22716;51.556;5.080;2023-05-10T07:58:52;8.37;;;4.83;;
36747;SDS011;22716;51.556;5.080;2023-05-10T08:01:22;8.23;;;5.33;;
36747;SDS011;22716;51.556;5.080;2023-05-10T08:03:54;6.83;;;4.20;;
36747;SDS011;22716;51.556;5.080;2023-05-10T08:06:23;6.93;;;4.67;;
36747;SDS011;22716;51.556;5.080;2023-05-10T08:08:52;7.13;;;3.80;;
36747;SDS011;22716;51.556;5.080;2023-05-10T08:11:21;6.87;;;4.90;;
36747;SDS011;22716;51.556;5.080;2023-05-10T08:13:53;6.27;;;4.10;;
36747;SDS011;22716;51.556;5.080;2023-05-10T08:16:22;7.93;;;3.87;;
36747;SDS011;22716;51.556;5.080;2023-05-10T08:18:54;10.67;;;5.03;;
36747;SDS011;22716;51.556;5.080;2023-05-10T08:21:23;8.03;;;3.90;;
36747;SDS011;22716;51.556;5.080;2023-05-10T08:23:52;4.80;;;3.20;;
36747;SDS011;22716;51.556;5.080;2023-05-10T08:26:23;6.60;;;3.93;;
36747;SDS011;22716;51.556;5.080;2023-05-10T08:28:52;4.17;;;3.63;;
36747;SDS011;22716;51.556;5.080;2023-05-10T08:31:21;4.13;;;2.90;;
36747;SDS011;22716;51.556;5.080;2023-05-10T08:33:50;4.07;;;2.90;;
36747;SDS011;22716;51.556;5.080;2023-05-10T08:36:23;3.40;;;3.10;;
36747;SDS011;22716;51.556;5.080;2023-05-10T08:38:53;4.97;;;3.20;;
36747;SDS011;22716;51.556;5.080;2023-05-10T08:41:23;6.47;;;3.17;;
36747;SDS011;22716;51.556;5.080;2023-05-10T08:43:53;4.50;;;3.40;;
36747;SDS011;22716;51.556;5.080;2023-05-10T08:46:23;5.10;;;3.00;;
36747;SDS011;22716;51.556;5.080;2023-05-10T08:48:52;4.83;;;2.70;;
36747;SDS011;22716;51.556;5.080;2023-05-10T08:51:26;8.23;;;3.40;;
36747;SDS011;22716;51.556;5.080;2023-05-10T08:56:28;5.17;;;3.67;;
36747;SDS011;22716;51.556;5.080;2023-05-10T08:58:57;4.13;;;3.00;;
36747;SDS011;22716;51.556;5.080;2023-05-10T09:04:05;4.97;;;3.47;;
36747;SDS011;22716;51.556;5.080;2023-05-10T09:06:45;7.83;;;3.87;;
36747;SDS011;22716;51.556;5.080;2023-05-10T09:09:15;7.13;;;3.80;;
36747;SDS011;22716;51.556;5.080;2023-05-10T09:11:45;4.20;;;3.50;;
36747;SDS011;22716;51.556;5.080;2023-05-10T09:14:15;8.70;;;4.80;;
36747;SDS011;22716;51.556;5.080;2023-05-10T09:16:45;4.13;;;3.50;;
36747;SDS011;22716;51.556;5.080;2023-05-10T09:19:15;6.47;;;3.50;;
36747;SDS011;22716;51.556;5.080;2023-05-10T09:21:47;5.90;;;3.73;;
36747;SDS011;22716;51.556;5.080;2023-05-10T09:24:17;4.83;;;3.20;;
36747;SDS011;22716;51.556;5.080;2023-05-10T09:26:47;15.13;;;5.27;;
36747;SDS011;22716;51.556;5.080;2023-05-10T09:29:16;8.27;;;3.47;;
36747;SDS011;22716;51.556;5.080;2023-05-10T09:31:47;5.17;;;3.13;;
36747;SDS011;22716;51.556;5.080;2023-05-10T09:34:21;7.13;;;2.57;;
36747;SDS011;22716;51.556;5.080;2023-05-10T09:37:01;7.27;;;3.23;;
36747;SDS011;22716;51.556;5.080;2023-05-10T09:39:31;4.40;;;3.88;;
36747;SDS011;22716;51.556;5.080;2023-05-10T09:42:02;4.53;;;3.30;;
36747;SDS011;22716;51.556;5.080;2023-05-10T09:44:33;5.17;;;4.00;;
36747;SDS011;22716;51.556;5.080;2023-05-10T09:47:03;6.43;;;3.60;;
36747;SDS011;22716;51.556;5.080;2023-05-10T09:49:32;8.00;;;4.43;;
36747;SDS011;22716;51.556;5.080;2023-05-10T09:52:04;8.40;;;4.23;;
36747;SDS011;22716;51.556;5.080;2023-05-10T09:54:35;9.55;;;5.03;;
36747;SDS011;22716;51.556;5.080;2023-05-10T09:57:04;5.37;;;3.83;;
36747;SDS011;22716;51.556;5.080;2023-05-10T09:59:33;6.80;;;4.30;;
36747;SDS011;22716;51.556;5.080;2023-05-10T10:02:03;5.97;;;3.40;;
36747;SDS011;22716;51.556;5.080;2023-05-10T10:04:32;5.60;;;4.10;;
36747;SDS011;22716;51.556;5.080;2023-05-10T10:07:24;7.20;;;3.40;;
36747;SDS011;22716;51.556;5.080;2023-05-10T10:09:54;6.47;;;2.83;;
36747;SDS011;22716;51.556;5.080;2023-05-10T10:12:24;4.73;;;3.10;;
36747;SDS011;22716;51.556;5.080;2023-05-10T10:14:54;4.57;;;2.43;;
36747;SDS011;22716;51.556;5.080;2023-05-10T10:17:24;3.00;;;2.33;;
36747;SDS011;22716;51.556;5.080;2023-05-10T10:19:56;7.33;;;2.97;;
36747;SDS011;22716;51.556;5.080;2023-05-10T10:22:28;5.57;;;3.40;;
36747;SDS011;22716;51.556;5.080;2023-05-10T10:24:57;10.43;;;3.57;;
36747;SDS011;22716;51.556;5.080;2023-05-10T10:27:28;8.63;;;3.53;;
36747;SDS011;22716;51.556;5.080;2023-05-10T10:30:10;5.70;;;4.00;;
36747;SDS011;22716;51.556;5.080;2023-05-10T10:35:41;6.27;;;4.40;;
36747;SDS011;22716;51.556;5.080;2023-05-10T10:38:14;8.97;;;3.93;;
36747;SDS011;22716;51.556;5.080;2023-05-10T10:40:43;9.27;;;4.57;;
36747;SDS011;22716;51.556;5.080;2023-05-10T10:43:22;7.80;;;4.80;;
36747;SDS011;22716;51.556;5.080;2023-05-10T10:46:09;5.07;;;3.70;;
36747;SDS011;22716;51.556;5.080;2023-05-10T10:48:47;5.90;;;3.57;;
36747;SDS011;22716;51.556;5.080;2023-05-10T10:51:17;8.27;;;3.90;;
36747;SDS011;22716;51.556;5.080;2023-05-10T10:53:48;10.17;;;3.60;;
36747;SDS011;22716;51.556;5.080;2023-05-10T10:56:19;6.32;;;4.03;;
36747;SDS011;22716;51.556;5.080;2023-05-10T10:58:51;6.53;;;4.37;;
36747;SDS011;22716;51.556;5.080;2023-05-10T11:01:21;3.80;;;3.33;;
36747;SDS011;22716;51.556;5.080;2023-05-10T11:06:48;5.23;;;3.10;;
36747;SDS011;22716;51.556;5.080;2023-05-10T11:09:19;4.43;;;2.57;;
36747;SDS011;22716;51.556;5.080;2023-05-10T11:11:53;3.90;;;2.40;;
36747;SDS011;22716;51.556;5.080;2023-05-10T11:14:24;5.90;;;2.27;;
36747;SDS011;22716;51.556;5.080;2023-05-10T11:16:54;7.30;;;2.27;;
36747;SDS011;22716;51.556;5.080;2023-05-10T11:19:23;4.33;;;1.57;;
36747;SDS011;22716;51.556;5.080;2023-05-10T11:22:12;4.57;;;2.07;;
36747;SDS011;22716;51.556;5.080;2023-05-10T11:24:52;6.93;;;2.40;;
36747;SDS011;22716;51.556;5.080;2023-05-10T11:27:26;2.83;;;1.73;;
36747;SDS011;22716;51.556;5.080;2023-05-10T11:29:55;3.33;;;1.70;;
36747;SDS011;22716;51.556;5.080;2023-05-10T11:32:24;3.40;;;1.37;;
36747;SDS011;22716;51.556;5.080;2023-05-10T11:34:53;3.20;;;1.47;;
36747;SDS011;22716;51.556;5.080;2023-05-10T11:37:22;3.30;;;2.07;;
36747;SDS011;22716;51.556;5.080;2023-05-10T11:39:54;3.43;;;1.93;;
36747;SDS011;22716;51.556;5.080;2023-05-10T11:42:23;3.20;;;1.80;;
36747;SDS011;22716;51.556;5.080;2023-05-10T11:44:52;2.80;;;1.83;;
36747;SDS011;22716;51.556;5.080;2023-05-10T11:47:21;2.47;;;2.27;;
36747;SDS011;22716;51.556;5.080;2023-05-10T11:49:51;5.37;;;2.47;;
36747;SDS011;22716;51.556;5.080;2023-05-10T11:52:20;3.60;;;2.27;;
36747;SDS011;22716;51.556;5.080;2023-05-10T11:54:50;3.17;;;2.63;;
36747;SDS011;22716;51.556;5.080;2023-05-10T11:57:26;4.03;;;2.70;;
36747;SDS011;22716;51.556;5.080;2023-05-10T12:02:27;3.63;;;2.17;;
36747;SDS011;22716;51.556;5.080;2023-05-10T12:04:58;8.40;;;3.13;;
36747;SDS011;22716;51.556;5.080;2023-05-10T12:07:27;5.37;;;2.17;;
36747;SDS011;22716;51.556;5.080;2023-05-10T12:10:06;4.33;;;2.37;;
36747;SDS011;22716;51.556;5.080;2023-05-10T12:12:38;5.87;;;2.70;;
36747;SDS011;22716;51.556;5.080;2023-05-10T12:15:10;4.27;;;2.50;;
36747;SDS011;22716;51.556;5.080;2023-05-10T12:17:40;3.30;;;2.80;;
36747;SDS011;22716;51.556;5.080;2023-05-10T12:20:13;4.43;;;2.27;;
36747;SDS011;22716;51.556;5.080;2023-05-10T12:22:47;3.67;;;2.37;;
36747;SDS011;22716;51.556;5.080;2023-05-10T12:25:21;3.67;;;1.80;;
36747;SDS011;22716;51.556;5.080;2023-05-10T12:27:51;2.93;;;1.80;;
36747;SDS011;22716;51.556;5.080;2023-05-10T12:30:22;9.60;;;3.37;;
36747;SDS011;22716;51.556;5.080;2023-05-10T12:32:52;3.30;;;1.60;;
36747;SDS011;22716;51.556;5.080;2023-05-10T12:35:29;2.90;;;2.20;;
36747;SDS011;22716;51.556;5.080;2023-05-10T12:37:59;3.80;;;1.57;;
36747;SDS011;22716;51.556;5.080;2023-05-10T12:40:33;1.17;;;0.90;;
36747;SDS011;22716;51.556;5.080;2023-05-10T12:43:02;1.30;;;1.20;;
36747;SDS011;22716;51.556;5.080;2023-05-10T12:45:31;1.17;;;0.90;;
36747;SDS011;22716;51.556;5.080;2023-05-10T12:48:01;1.50;;;1.20;;
36747;SDS011;22716;51.556;5.080;2023-05-10T12:50:30;4.97;;;2.70;;
36747;SDS011;22716;51.556;5.080;2023-05-10T12:52:59;6.00;;;2.97;;
36747;SDS011;22716;51.556;5.080;2023-05-10T12:55:29;3.10;;;2.00;;
36747;SDS011;22716;51.556;5.080;2023-05-10T12:58:00;4.37;;;1.80;;
36747;SDS011;22716;51.556;5.080;2023-05-10T13:00:29;7.17;;;3.63;;
36747;SDS011;22716;51.556;5.080;2023-05-10T13:02:59;4.53;;;3.23;;
36747;SDS011;22716;51.556;5.080;2023-05-10T13:05:28;5.20;;;2.87;;
36747;SDS011;22716;51.556;5.080;2023-05-10T13:07:59;7.90;;;4.43;;
36747;SDS011;22716;51.556;5.080;2023-05-10T13:10:28;10.80;;;2.93;;
36747;SDS011;22716;51.556;5.080;2023-05-10T13:13:01;4.63;;;2.83;;
36747;SDS011;22716;51.556;5.080;2023-05-10T13:15:30;5.03;;;3.07;;
36747;SDS011;22716;51.556;5.080;2023-05-10T13:18:00;7.53;;;3.30;;
36747;SDS011;22716;51.556;5.080;2023-05-10T13:20:29;6.50;;;3.57;;
36747;SDS011;22716;51.556;5.080;2023-05-10T13:22:58;4.23;;;2.87;;
36747;SDS011;22716;51.556;5.080;2023-05-10T13:25:28;6.50;;;3.20;;
36747;SDS011;22716;51.556;5.080;2023-05-10T13:27:56;8.50;;;3.23;;
36747;SDS011;22716;51.556;5.080;2023-05-10T13:30:29;4.23;;;2.80;;
36747;SDS011;22716;51.556;5.080;2023-05-10T13:32:58;3.47;;;2.50;;
36747;SDS011;22716;51.556;5.080;2023-05-10T13:35:27;3.87;;;2.73;;
36747;SDS011;22716;51.556;5.080;2023-05-10T13:37:56;5.53;;;2.67;;
36747;SDS011;22716;51.556;5.080;2023-05-10T13:40:25;4.23;;;2.20;;
36747;SDS011;22716;51.556;5.080;2023-05-10T13:42:54;2.67;;;2.10;;
36747;SDS011;22716;51.556;5.080;2023-05-10T13:45:23;3.63;;;2.50;;
36747;SDS011;22716;51.556;5.080;2023-05-10T13:47:55;3.93;;;2.33;;
36747;SDS011;22716;51.556;5.080;2023-05-10T13:50:25;7.40;;;3.40;;
36747;SDS011;22716;51.556;5.080;2023-05-10T13:52:55;2.83;;;2.23;;
36747;SDS011;22716;51.556;5.080;2023-05-10T13:55:25;3.17;;;2.57;;
36747;SDS011;22716;51.556;5.080;2023-05-10T13:57:54;4.67;;;2.87;;
36747;SDS011;22716;51.556;5.080;2023-05-10T14:00:23;4.37;;;2.83;;
36747;SDS011;22716;51.556;5.080;2023-05-10T14:02:53;4.07;;;2.57;;
36747;SDS011;22716;51.556;5.080;2023-05-10T14:05:24;5.37;;;3.50;;
36747;SDS011;22716;51.556;5.080;2023-05-10T14:07:53;7.03;;;3.80;;
36747;SDS011;22716;51.556;5.080;2023-05-10T14:10:26;5.37;;;3.17;;
36747;SDS011;22716;51.556;5.080;2023-05-10T14:12:55;6.17;;;3.57;;
36747;SDS011;22716;51.556;5.080;2023-05-10T14:15:25;9.17;;;3.00;;
36747;SDS011;22716;51.556;5.080;2023-05-10T14:17:56;5.40;;;3.57;;
36747;SDS011;22716;51.556;5.080;2023-05-10T14:20:26;4.43;;;2.87;;
36747;SDS011;22716;51.556;5.080;2023-05-10T14:22:55;4.23;;;3.27;;
36747;SDS011;22716;51.556;5.080;2023-05-10T14:25:24;6.97;;;4.43;;
36747;SDS011;22716;51.556;5.080;2023-05-10T14:27:54;8.60;;;4.00;;
36747;SDS011;22716;51.556;5.080;2023-05-10T14:30:23;5.47;;;3.47;;
36747;SDS011;22716;51.556;5.080;2023-05-10T14:32:52;5.17;;;3.80;;
36747;SDS011;22716;51.556;5.080;2023-05-10T14:35:26;6.13;;;3.80;;
36747;SDS011;22716;51.556;5.080;2023-05-10T14:37:56;8.70;;;4.37;;
36747;SDS011;22716;51.556;5.080;2023-05-10T14:40:26;7.37;;;4.80;;
36747;SDS011;22716;51.556;5.080;2023-05-10T14:42:56;6.40;;;3.47;;
36747;SDS011;22716;51.556;5.080;2023-05-10T14:45:25;6.77;;;4.27;;
36747;SDS011;22716;51.556;5.080;2023-05-10T14:48:15;7.10;;;4.13;;
36747;SDS011;22716;51.556;5.080;2023-05-10T14:50:46;4.07;;;3.00;;
36747;SDS011;22716;51.556;5.080;2023-05-10T14:53:17;5.38;;;3.65;;
36747;SDS011;22716;51.556;5.080;2023-05-10T14:55:47;4.80;;;3.50;;
36747;SDS011;22716;51.556;5.080;2023-05-10T14:58:16;6.27;;;3.63;;
36747;SDS011;22716;51.556;5.080;2023-05-10T15:00:45;5.83;;;2.80;;
36747;SDS011;22716;51.556;5.080;2023-05-10T15:03:14;5.60;;;3.30;;
36747;SDS011;22716;51.556;5.080;2023-05-10T15:05:44;3.83;;;3.00;;
36747;SDS011;22716;51.556;5.080;2023-05-10T15:08:15;4.00;;;3.03;;
36747;SDS011;22716;51.556;5.080;2023-05-10T15:10:44;4.10;;;3.37;;
36747;SDS011;22716;51.556;5.080;2023-05-10T15:13:14;10.67;;;5.03;;
36747;SDS011;22716;51.556;5.080;2023-05-10T15:15:44;7.10;;;5.17;;